sensor_id;sensor_type;location;lat;lon;timestamp;P1;durP1;ratioP1;P2;durP2;ratioP2
82352;SDS011;71954;47.430;18.920;2023-11-21T00:01:13;18.73;;;10.90;;
82352;SDS011;71954;47.430;18.920;2023-11-21T00:03:40;21.23;;;10.77;;
82352;SDS011;71954;47.430;18.920;2023-11-21T00:06:07;22.02;;;12.60;;
82352;SDS011;71954;47.430;18.920;2023-11-21T00:08:35;25.15;;;13.30;;
82352;SDS011;71954;47.430;18.920;2023-11-21T00:13:32;22.60;;;12.55;;
82352;SDS011;71954;47.430;18.920;2023-11-21T00:15:59;25.67;;;13.82;;
82352;SDS011;71954;47.430;18.920;2023-11-21T00:18:26;22.92;;;13.23;;
82352;SDS011;71954;47.430;18.920;2023-11-21T00:20:52;23.98;;;13.05;;
82352;SDS011;71954;47.430;18.920;2023-11-21T00:23:19;25.80;;;12.70;;
82352;SDS011;71954;47.430;18.920;2023-11-21T00:25:45;22.52;;;11.85;;
82352;SDS011;71954;47.430;18.920;2023-11-21T00:28:12;27.17;;;13.10;;
82352;SDS011;71954;47.430;18.920;2023-11-21T00:30:38;23.67;;;11.25;;
82352;SDS011;71954;47.430;18.920;2023-11-21T00:33:05;23.83;;;12.90;;
82352;SDS011;71954;47.430;18.920;2023-11-21T00:35:32;19.45;;;11.57;;
82352;SDS011;71954;47.430;18.920;2023-11-21T00:37:58;15.55;;;9.45;;
82352;SDS011;71954;47.430;18.920;2023-11-21T00:40:25;22.65;;;12.50;;
82352;SDS011;71954;47.430;18.920;2023-11-21T00:42:52;19.83;;;10.80;;
82352;SDS011;71954;47.430;18.920;2023-11-21T00:45:18;20.63;;;11.18;;
82352;SDS011;71954;47.430;18.920;2023-11-21T00:47:45;19.40;;;11.10;;
82352;SDS011;71954;47.430;18.920;2023-11-21T00:50:12;21.13;;;10.80;;
82352;SDS011;71954;47.430;18.920;2023-11-21T00:52:38;24.88;;;12.52;;
82352;SDS011;71954;47.430;18.920;2023-11-21T00:55:05;19.35;;;10.77;;
82352;SDS011;71954;47.430;18.920;2023-11-21T00:57:34;17.27;;;11.00;;
82352;SDS011;71954;47.430;18.920;2023-11-21T01:00:01;21.40;;;10.70;;
82352;SDS011;71954;47.430;18.920;2023-11-21T01:02:33;23.80;;;12.25;;
82352;SDS011;71954;47.430;18.920;2023-11-21T01:05:02;18.15;;;11.10;;
82352;SDS011;71954;47.430;18.920;2023-11-21T01:07:29;20.42;;;11.02;;
82352;SDS011;71954;47.430;18.920;2023-11-21T01:09:55;18.85;;;10.77;;
82352;SDS011;71954;47.430;18.920;2023-11-21T01:12:22;20.38;;;11.50;;
82352;SDS011;71954;47.430;18.920;2023-11-21T01:14:51;22.10;;;11.85;;
82352;SDS011;71954;47.430;18.920;2023-11-21T01:17:18;19.83;;;10.25;;
82352;SDS011;71954;47.430;18.920;2023-11-21T01:19:45;17.95;;;10.20;;
82352;SDS011;71954;47.430;18.920;2023-11-21T01:22:12;18.75;;;10.60;;
82352;SDS011;71954;47.430;18.920;2023-11-21T01:24:38;15.85;;;9.68;;
82352;SDS011;71954;47.430;18.920;2023-11-21T01:27:05;16.40;;;9.60;;
82352;SDS011;71954;47.430;18.920;2023-11-21T01:29:32;17.27;;;10.13;;
82352;SDS011;71954;47.430;18.920;2023-11-21T01:31:58;23.08;;;10.02;;
82352;SDS011;71954;47.430;18.920;2023-11-21T01:34:25;20.63;;;10.30;;
82352;SDS011;71954;47.430;18.920;2023-11-21T01:36:51;21.52;;;10.10;;
82352;SDS011;71954;47.430;18.920;2023-11-21T01:39:18;17.20;;;9.18;;
82352;SDS011;71954;47.430;18.920;2023-11-21T01:41:50;20.85;;;9.25;;
82352;SDS011;71954;47.430;18.920;2023-11-21T01:44:18;14.15;;;8.35;;
82352;SDS011;71954;47.430;18.920;2023-11-21T01:46:45;18.08;;;10.95;;
82352;SDS011;71954;47.430;18.920;2023-11-21T01:49:14;24.52;;;10.98;;
82352;SDS011;71954;47.430;18.920;2023-11-21T01:54:10;17.02;;;8.25;;
82352;SDS011;71954;47.430;18.920;2023-11-21T01:56:46;15.18;;;6.90;;
82352;SDS011;71954;47.430;18.920;2023-11-21T01:59:20;15.70;;;8.07;;
82352;SDS011;71954;47.430;18.920;2023-11-21T02:01:50;12.00;;;7.40;;
82352;SDS011;71954;47.430;18.920;2023-11-21T02:04:17;10.38;;;6.25;;
82352;SDS011;71954;47.430;18.920;2023-11-21T02:06:44;9.80;;;5.38;;
82352;SDS011;71954;47.430;18.920;2023-11-21T02:09:11;11.52;;;5.63;;
82352;SDS011;71954;47.430;18.920;2023-11-21T02:11:41;14.38;;;7.70;;
82352;SDS011;71954;47.430;18.920;2023-11-21T02:14:08;14.50;;;8.23;;
82352;SDS011;71954;47.430;18.920;2023-11-21T02:16:36;16.25;;;8.93;;
82352;SDS011;71954;47.430;18.920;2023-11-21T02:19:03;13.05;;;7.65;;
82352;SDS011;71954;47.430;18.920;2023-11-21T02:21:35;16.48;;;9.07;;
82352;SDS011;71954;47.430;18.920;2023-11-21T02:24:07;17.92;;;9.25;;
82352;SDS011;71954;47.430;18.920;2023-11-21T02:29:01;14.95;;;7.90;;
82352;SDS011;71954;47.430;18.920;2023-11-21T02:31:30;14.68;;;7.97;;
82352;SDS011;71954;47.430;18.920;2023-11-21T02:33:59;14.88;;;7.80;;
82352;SDS011;71954;47.430;18.920;2023-11-21T02:36:26;13.90;;;7.20;;
82352;SDS011;71954;47.430;18.920;2023-11-21T02:38:52;16.13;;;7.72;;
82352;SDS011;71954;47.430;18.920;2023-11-21T02:41:19;16.67;;;7.88;;
82352;SDS011;71954;47.430;18.920;2023-11-21T02:43:45;15.68;;;8.40;;
82352;SDS011;71954;47.430;18.920;2023-11-21T02:46:12;17.38;;;9.07;;
82352;SDS011;71954;47.430;18.920;2023-11-21T02:48:38;13.45;;;8.63;;
82352;SDS011;71954;47.430;18.920;2023-11-21T02:51:05;19.33;;;9.85;;
82352;SDS011;71954;47.430;18.920;2023-11-21T02:53:32;17.10;;;8.48;;
82352;SDS011;71954;47.430;18.920;2023-11-21T02:55:58;16.92;;;8.38;;
82352;SDS011;71954;47.430;18.920;2023-11-21T02:58:25;15.15;;;8.40;;
82352;SDS011;71954;47.430;18.920;2023-11-21T03:00:51;17.50;;;9.95;;
82352;SDS011;71954;47.430;18.920;2023-11-21T03:03:18;18.83;;;9.60;;
82352;SDS011;71954;47.430;18.920;2023-11-21T03:05:44;16.27;;;8.63;;
82352;SDS011;71954;47.430;18.920;2023-11-21T03:08:11;15.18;;;8.30;;
82352;SDS011;71954;47.430;18.920;2023-11-21T03:10:38;13.63;;;8.07;;
82352;SDS011;71954;47.430;18.920;2023-11-21T03:13:04;14.82;;;6.40;;
82352;SDS011;71954;47.430;18.920;2023-11-21T03:15:31;13.23;;;5.55;;
82352;SDS011;71954;47.430;18.920;2023-11-21T03:17:59;10.07;;;5.50;;
82352;SDS011;71954;47.430;18.920;2023-11-21T03:20:25;9.95;;;4.68;;
82352;SDS011;71954;47.430;18.920;2023-11-21T03:22:52;8.25;;;4.30;;
82352;SDS011;71954;47.430;18.920;2023-11-21T03:25:19;9.82;;;4.57;;
82352;SDS011;71954;47.430;18.920;2023-11-21T03:27:46;7.05;;;4.25;;
82352;SDS011;71954;47.430;18.920;2023-11-21T03:30:12;7.60;;;3.45;;
82352;SDS011;71954;47.430;18.920;2023-11-21T03:32:39;9.25;;;4.35;;
82352;SDS011;71954;47.430;18.920;2023-11-21T03:35:06;7.95;;;3.90;;
82352;SDS011;71954;47.430;18.920;2023-11-21T03:40:00;11.68;;;5.90;;
82352;SDS011;71954;47.430;18.920;2023-11-21T03:42:26;10.95;;;5.97;;
82352;SDS011;71954;47.430;18.920;2023-11-21T03:44:53;14.38;;;7.20;;
82352;SDS011;71954;47.430;18.920;2023-11-21T03:47:20;10.85;;;6.30;;
82352;SDS011;71954;47.430;18.920;2023-11-21T03:49:47;11.00;;;6.40;;
82352;SDS011;71954;47.430;18.920;2023-11-21T03:52:13;12.48;;;7.18;;
82352;SDS011;71954;47.430;18.920;2023-11-21T03:54:40;12.02;;;7.38;;
82352;SDS011;71954;47.430;18.920;2023-11-21T03:57:07;11.15;;;6.72;;
82352;SDS011;71954;47.430;18.920;2023-11-21T03:59:33;11.93;;;6.88;;
82352;SDS011;71954;47.430;18.920;2023-11-21T04:02:00;12.35;;;6.05;;
82352;SDS011;71954;47.430;18.920;2023-11-21T04:04:27;11.98;;;5.90;;
82352;SDS011;71954;47.430;18.920;2023-11-21T04:06:53;13.50;;;7.35;;
82352;SDS011;71954;47.430;18.920;2023-11-21T04:09:20;11.88;;;6.70;;
82352;SDS011;71954;47.430;18.920;2023-11-21T04:11:47;11.63;;;6.45;;
82352;SDS011;71954;47.430;18.920;2023-11-21T04:14:14;14.52;;;7.47;;
82352;SDS011;71954;47.430;18.920;2023-11-21T04:16:40;11.05;;;6.50;;
82352;SDS011;71954;47.430;18.920;2023-11-21T04:19:08;11.32;;;6.15;;
82352;SDS011;71954;47.430;18.920;2023-11-21T04:21:41;11.88;;;6.65;;
82352;SDS011;71954;47.430;18.920;2023-11-21T04:29:01;9.82;;;5.40;;
82352;SDS011;71954;47.430;18.920;2023-11-21T04:31:28;12.00;;;5.85;;
82352;SDS011;71954;47.430;18.920;2023-11-21T04:33:55;11.60;;;5.75;;
82352;SDS011;71954;47.430;18.920;2023-11-21T04:36:21;10.00;;;5.88;;
82352;SDS011;71954;47.430;18.920;2023-11-21T04:38:48;12.68;;;5.75;;
82352;SDS011;71954;47.430;18.920;2023-11-21T04:41:14;10.43;;;5.63;;
82352;SDS011;71954;47.430;18.920;2023-11-21T04:43:41;12.75;;;6.10;;
82352;SDS011;71954;47.430;18.920;2023-11-21T04:48:35;9.60;;;5.18;;
82352;SDS011;71954;47.430;18.920;2023-11-21T04:51:01;10.07;;;5.25;;
82352;SDS011;71954;47.430;18.920;2023-11-21T04:53:30;11.07;;;6.03;;
82352;SDS011;71954;47.430;18.920;2023-11-21T04:55:57;9.55;;;5.60;;
82352;SDS011;71954;47.430;18.920;2023-11-21T04:58:24;10.10;;;5.30;;
82352;SDS011;71954;47.430;18.920;2023-11-21T05:00:50;9.63;;;5.60;;
82352;SDS011;71954;47.430;18.920;2023-11-21T05:03:17;10.55;;;6.50;;
82352;SDS011;71954;47.430;18.920;2023-11-21T05:05:44;10.55;;;6.57;;
82352;SDS011;71954;47.430;18.920;2023-11-21T05:08:11;14.75;;;7.75;;
82352;SDS011;71954;47.430;18.920;2023-11-21T05:10:37;12.30;;;7.93;;
82352;SDS011;71954;47.430;18.920;2023-11-21T05:13:05;14.88;;;9.02;;
82352;SDS011;71954;47.430;18.920;2023-11-21T05:15:36;16.25;;;8.18;;
82352;SDS011;71954;47.430;18.920;2023-11-21T05:20:31;12.55;;;7.13;;
82352;SDS011;71954;47.430;18.920;2023-11-21T05:22:59;11.13;;;7.45;;
82352;SDS011;71954;47.430;18.920;2023-11-21T05:25:26;12.18;;;7.00;;
82352;SDS011;71954;47.430;18.920;2023-11-21T05:27:52;13.18;;;6.78;;
82352;SDS011;71954;47.430;18.920;2023-11-21T05:30:21;13.60;;;8.50;;
82352;SDS011;71954;47.430;18.920;2023-11-21T05:32:48;14.90;;;7.88;;
82352;SDS011;71954;47.430;18.920;2023-11-21T05:35:16;11.52;;;7.38;;
82352;SDS011;71954;47.430;18.920;2023-11-21T05:37:44;11.65;;;6.85;;
82352;SDS011;71954;47.430;18.920;2023-11-21T05:40:12;13.10;;;7.30;;
82352;SDS011;71954;47.430;18.920;2023-11-21T05:42:39;11.75;;;6.78;;
82352;SDS011;71954;47.430;18.920;2023-11-21T05:45:07;10.85;;;6.75;;
82352;SDS011;71954;47.430;18.920;2023-11-21T05:47:42;11.32;;;7.10;;
82352;SDS011;71954;47.430;18.920;2023-11-21T05:50:10;15.40;;;6.82;;
82352;SDS011;71954;47.430;18.920;2023-11-21T05:52:41;14.23;;;7.70;;
82352;SDS011;71954;47.430;18.920;2023-11-21T05:55:11;13.18;;;8.00;;
82352;SDS011;71954;47.430;18.920;2023-11-21T05:57:40;11.30;;;6.88;;
82352;SDS011;71954;47.430;18.920;2023-11-21T06:00:08;13.95;;;7.35;;
82352;SDS011;71954;47.430;18.920;2023-11-21T06:02:57;14.52;;;6.75;;
82352;SDS011;71954;47.430;18.920;2023-11-21T06:05:24;11.40;;;6.55;;
82352;SDS011;71954;47.430;18.920;2023-11-21T06:07:53;9.75;;;5.82;;
82352;SDS011;71954;47.430;18.920;2023-11-21T06:10:21;13.75;;;7.15;;
82352;SDS011;71954;47.430;18.920;2023-11-21T06:12:51;11.02;;;6.68;;
82352;SDS011;71954;47.430;18.920;2023-11-21T06:15:18;9.55;;;6.53;;
82352;SDS011;71954;47.430;18.920;2023-11-21T06:17:49;13.27;;;6.53;;
82352;SDS011;71954;47.430;18.920;2023-11-21T06:20:19;13.25;;;7.90;;
82352;SDS011;71954;47.430;18.920;2023-11-21T06:22:47;14.48;;;6.97;;
82352;SDS011;71954;47.430;18.920;2023-11-21T06:25:15;12.25;;;6.85;;
82352;SDS011;71954;47.430;18.920;2023-11-21T06:27:42;12.43;;;8.10;;
82352;SDS011;71954;47.430;18.920;2023-11-21T06:30:14;16.35;;;8.88;;
82352;SDS011;71954;47.430;18.920;2023-11-21T06:32:42;21.35;;;11.05;;
82352;SDS011;71954;47.430;18.920;2023-11-21T06:35:13;24.80;;;14.60;;
82352;SDS011;71954;47.430;18.920;2023-11-21T06:37:40;22.05;;;14.88;;
82352;SDS011;71954;47.430;18.920;2023-11-21T06:40:06;19.88;;;9.55;;
82352;SDS011;71954;47.430;18.920;2023-11-21T06:42:33;20.70;;;11.80;;
82352;SDS011;71954;47.430;18.920;2023-11-21T06:45:00;23.42;;;13.20;;
82352;SDS011;71954;47.430;18.920;2023-11-21T06:47:30;23.65;;;13.88;;
82352;SDS011;71954;47.430;18.920;2023-11-21T06:49:57;24.42;;;14.52;;
82352;SDS011;71954;47.430;18.920;2023-11-21T06:54:51;23.08;;;12.77;;
82352;SDS011;71954;47.430;18.920;2023-11-21T06:57:17;18.80;;;10.45;;
82352;SDS011;71954;47.430;18.920;2023-11-21T06:59:44;14.43;;;6.80;;
82352;SDS011;71954;47.430;18.920;2023-11-21T07:02:11;11.50;;;4.55;;
82352;SDS011;71954;47.430;18.920;2023-11-21T07:04:38;13.95;;;6.13;;
82352;SDS011;71954;47.430;18.920;2023-11-21T07:07:05;9.32;;;5.03;;
82352;SDS011;71954;47.430;18.920;2023-11-21T07:09:33;8.85;;;3.80;;
82352;SDS011;71954;47.430;18.920;2023-11-21T07:12:00;9.25;;;5.35;;
82352;SDS011;71954;47.430;18.920;2023-11-21T07:14:27;9.30;;;4.32;;
82352;SDS011;71954;47.430;18.920;2023-11-21T07:16:54;7.60;;;3.40;;
82352;SDS011;71954;47.430;18.920;2023-11-21T07:19:21;10.13;;;3.78;;
82352;SDS011;71954;47.430;18.920;2023-11-21T07:21:48;6.65;;;3.38;;
82352;SDS011;71954;47.430;18.920;2023-11-21T07:24:17;6.97;;;3.75;;
82352;SDS011;71954;47.430;18.920;2023-11-21T07:26:44;12.05;;;3.85;;
82352;SDS011;71954;47.430;18.920;2023-11-21T07:29:11;6.28;;;3.35;;
82352;SDS011;71954;47.430;18.920;2023-11-21T07:31:38;9.48;;;3.88;;
82352;SDS011;71954;47.430;18.920;2023-11-21T07:34:04;11.88;;;5.75;;
82352;SDS011;71954;47.430;18.920;2023-11-21T07:36:32;12.70;;;6.95;;
82352;SDS011;71954;47.430;18.920;2023-11-21T07:38:58;12.88;;;6.65;;
82352;SDS011;71954;47.430;18.920;2023-11-21T07:41:25;11.00;;;5.68;;
82352;SDS011;71954;47.430;18.920;2023-11-21T07:43:57;10.65;;;6.35;;
82352;SDS011;71954;47.430;18.920;2023-11-21T07:46:24;10.55;;;5.43;;
82352;SDS011;71954;47.430;18.920;2023-11-21T07:48:52;13.65;;;5.70;;
82352;SDS011;71954;47.430;18.920;2023-11-21T07:51:19;13.98;;;6.25;;
82352;SDS011;71954;47.430;18.920;2023-11-21T07:53:46;11.10;;;6.35;;
82352;SDS011;71954;47.430;18.920;2023-11-21T07:56:13;10.05;;;5.43;;
82352;SDS011;71954;47.430;18.920;2023-11-21T07:58:39;12.63;;;5.43;;
82352;SDS011;71954;47.430;18.920;2023-11-21T08:01:06;10.50;;;5.13;;
82352;SDS011;71954;47.430;18.920;2023-11-21T08:03:34;11.18;;;6.30;;
82352;SDS011;71954;47.430;18.920;2023-11-21T08:06:01;12.43;;;6.70;;
82352;SDS011;71954;47.430;18.920;2023-11-21T08:08:29;9.57;;;5.50;;
82352;SDS011;71954;47.430;18.920;2023-11-21T08:10:56;8.70;;;5.00;;
82352;SDS011;71954;47.430;18.920;2023-11-21T08:13:23;9.65;;;5.68;;
82352;SDS011;71954;47.430;18.920;2023-11-21T08:15:53;12.30;;;6.35;;
82352;SDS011;71954;47.430;18.920;2023-11-21T08:18:20;11.80;;;5.80;;
82352;SDS011;71954;47.430;18.920;2023-11-21T08:20:47;7.90;;;4.70;;
82352;SDS011;71954;47.430;18.920;2023-11-21T08:23:14;12.73;;;5.18;;
82352;SDS011;71954;47.430;18.920;2023-11-21T08:25:45;10.57;;;5.20;;
82352;SDS011;71954;47.430;18.920;2023-11-21T08:28:12;11.88;;;4.55;;
82352;SDS011;71954;47.430;18.920;2023-11-21T08:30:41;11.05;;;5.93;;
82352;SDS011;71954;47.430;18.920;2023-11-21T08:35:35;10.25;;;5.18;;
82352;SDS011;71954;47.430;18.920;2023-11-21T08:38:03;10.10;;;5.28;;
82352;SDS011;71954;47.430;18.920;2023-11-21T08:40:31;9.38;;;4.85;;
82352;SDS011;71954;47.430;18.920;2023-11-21T08:42:57;10.18;;;5.65;;
82352;SDS011;71954;47.430;18.920;2023-11-21T08:45:27;10.20;;;5.10;;
82352;SDS011;71954;47.430;18.920;2023-11-21T08:47:53;7.45;;;4.68;;
82352;SDS011;71954;47.430;18.920;2023-11-21T08:50:20;10.57;;;6.10;;
82352;SDS011;71954;47.430;18.920;2023-11-21T08:52:47;12.98;;;6.82;;
82352;SDS011;71954;47.430;18.920;2023-11-21T08:55:14;20.38;;;7.60;;
82352;SDS011;71954;47.430;18.920;2023-11-21T08:57:41;13.90;;;6.30;;
82352;SDS011;71954;47.430;18.920;2023-11-21T09:00:10;10.43;;;5.57;;
82352;SDS011;71954;47.430;18.920;2023-11-21T09:02:38;13.38;;;6.10;;
82352;SDS011;71954;47.430;18.920;2023-11-21T09:05:09;11.57;;;6.22;;
82352;SDS011;71954;47.430;18.920;2023-11-21T09:07:38;9.98;;;5.65;;
82352;SDS011;71954;47.430;18.920;2023-11-21T09:10:05;11.70;;;5.72;;
82352;SDS011;71954;47.430;18.920;2023-11-21T09:12:34;9.07;;;4.80;;
82352;SDS011;71954;47.430;18.920;2023-11-21T09:15:04;9.57;;;5.25;;
82352;SDS011;71954;47.430;18.920;2023-11-21T09:17:32;14.55;;;5.57;;
82352;SDS011;71954;47.430;18.920;2023-11-21T09:20:02;11.27;;;5.30;;
82352;SDS011;71954;47.430;18.920;2023-11-21T09:22:33;10.55;;;5.32;;
82352;SDS011;71954;47.430;18.920;2023-11-21T09:24:59;10.70;;;5.15;;
82352;SDS011;71954;47.430;18.920;2023-11-21T09:27:26;11.07;;;5.88;;
82352;SDS011;71954;47.430;18.920;2023-11-21T09:29:53;9.43;;;4.93;;
82352;SDS011;71954;47.430;18.920;2023-11-21T09:32:20;11.77;;;4.95;;
82352;SDS011;71954;47.430;18.920;2023-11-21T09:34:48;10.23;;;4.75;;
82352;SDS011;71954;47.430;18.920;2023-11-21T09:37:16;7.28;;;4.22;;
82352;SDS011;71954;47.430;18.920;2023-11-21T09:39:43;10.00;;;4.88;;
82352;SDS011;71954;47.430;18.920;2023-11-21T09:44:51;8.27;;;4.82;;
82352;SDS011;71954;47.430;18.920;2023-11-21T09:47:25;7.95;;;3.92;;
82352;SDS011;71954;47.430;18.920;2023-11-21T09:49:52;8.75;;;4.25;;
82352;SDS011;71954;47.430;18.920;2023-11-21T09:52:26;10.15;;;4.10;;
82352;SDS011;71954;47.430;18.920;2023-11-21T09:54:54;9.93;;;4.45;;
82352;SDS011;71954;47.430;18.920;2023-11-21T09:57:24;9.25;;;4.88;;
82352;SDS011;71954;47.430;18.920;2023-11-21T09:59:52;8.05;;;4.10;;
82352;SDS011;71954;47.430;18.920;2023-11-21T10:02:26;8.90;;;4.63;;
82352;SDS011;71954;47.430;18.920;2023-11-21T10:04:58;17.67;;;7.88;;
82352;SDS011;71954;47.430;18.920;2023-11-21T10:07:27;10.52;;;5.80;;
82352;SDS011;71954;47.430;18.920;2023-11-21T10:09:57;12.95;;;6.50;;
82352;SDS011;71954;47.430;18.920;2023-11-21T10:12:28;12.45;;;4.05;;
82352;SDS011;71954;47.430;18.920;2023-11-21T10:15:03;8.82;;;5.38;;
82352;SDS011;71954;47.430;18.920;2023-11-21T10:17:35;13.77;;;6.88;;
82352;SDS011;71954;47.430;18.920;2023-11-21T10:20:10;8.63;;;5.18;;
82352;SDS011;71954;47.430;18.920;2023-11-21T10:22:40;13.52;;;6.05;;
82352;SDS011;71954;47.430;18.920;2023-11-21T10:25:11;11.98;;;5.40;;
82352;SDS011;71954;47.430;18.920;2023-11-21T10:27:40;10.95;;;5.68;;
82352;SDS011;71954;47.430;18.920;2023-11-21T10:32:38;10.15;;;5.35;;
82352;SDS011;71954;47.430;18.920;2023-11-21T10:35:07;14.70;;;5.93;;
82352;SDS011;71954;47.430;18.920;2023-11-21T10:37:37;8.30;;;5.50;;
82352;SDS011;71954;47.430;18.920;2023-11-21T10:40:07;11.98;;;5.18;;
82352;SDS011;71954;47.430;18.920;2023-11-21T10:42:39;10.65;;;5.53;;
82352;SDS011;71954;47.430;18.920;2023-11-21T10:45:10;9.88;;;5.07;;
82352;SDS011;71954;47.430;18.920;2023-11-21T10:47:39;11.40;;;5.32;;
82352;SDS011;71954;47.430;18.920;2023-11-21T10:50:07;10.95;;;5.20;;
82352;SDS011;71954;47.430;18.920;2023-11-21T10:52:38;11.68;;;5.93;;
82352;SDS011;71954;47.430;18.920;2023-11-21T10:55:27;10.40;;;5.93;;
82352;SDS011;71954;47.430;18.920;2023-11-21T10:57:53;9.63;;;5.15;;
82352;SDS011;71954;47.430;18.920;2023-11-21T11:00:24;10.70;;;5.78;;
82352;SDS011;71954;47.430;18.920;2023-11-21T11:05:19;13.05;;;6.35;;
82352;SDS011;71954;47.430;18.920;2023-11-21T11:07:50;26.98;;;9.02;;
82352;SDS011;71954;47.430;18.920;2023-11-21T11:10:26;13.93;;;7.18;;
82352;SDS011;71954;47.430;18.920;2023-11-21T11:12:53;16.45;;;8.25;;
82352;SDS011;71954;47.430;18.920;2023-11-21T11:15:21;12.77;;;8.07;;
82352;SDS011;71954;47.430;18.920;2023-11-21T11:17:48;13.38;;;7.22;;
82352;SDS011;71954;47.430;18.920;2023-11-21T11:20:16;12.15;;;7.75;;
82352;SDS011;71954;47.430;18.920;2023-11-21T11:22:45;10.60;;;6.82;;
82352;SDS011;71954;47.430;18.920;2023-11-21T11:28:37;12.85;;;5.38;;
82352;SDS011;71954;47.430;18.920;2023-11-21T11:31:18;11.75;;;6.82;;
82352;SDS011;71954;47.430;18.920;2023-11-21T11:34:15;11.32;;;5.53;;
82352;SDS011;71954;47.430;18.920;2023-11-21T11:36:54;13.20;;;6.18;;
82352;SDS011;71954;47.430;18.920;2023-11-21T11:42:08;12.73;;;6.10;;
82352;SDS011;71954;47.430;18.920;2023-11-21T11:47:28;15.52;;;7.70;;
82352;SDS011;71954;47.430;18.920;2023-11-21T11:50:10;15.13;;;8.68;;
82352;SDS011;71954;47.430;18.920;2023-11-21T11:52:45;16.92;;;9.43;;
82352;SDS011;71954;47.430;18.920;2023-11-21T11:55:13;16.27;;;8.27;;
82352;SDS011;71954;47.430;18.920;2023-11-21T11:57:45;15.15;;;8.90;;
82352;SDS011;71954;47.430;18.920;2023-11-21T12:00:14;12.88;;;7.00;;
82352;SDS011;71954;47.430;18.920;2023-11-21T12:02:49;12.25;;;7.63;;
82352;SDS011;71954;47.430;18.920;2023-11-21T12:05:18;12.88;;;7.00;;
82352;SDS011;71954;47.430;18.920;2023-11-21T12:10:21;12.10;;;6.45;;
82352;SDS011;71954;47.430;18.920;2023-11-21T12:12:52;21.08;;;11.15;;
82352;SDS011;71954;47.430;18.920;2023-11-21T12:15:21;20.40;;;11.95;;
82352;SDS011;71954;47.430;18.920;2023-11-21T12:17:49;14.38;;;8.65;;
82352;SDS011;71954;47.430;18.920;2023-11-21T12:20:20;15.32;;;7.50;;
82352;SDS011;71954;47.430;18.920;2023-11-21T12:22:51;11.57;;;5.68;;
82352;SDS011;71954;47.430;18.920;2023-11-21T12:27:55;12.30;;;5.93;;
82352;SDS011;71954;47.430;18.920;2023-11-21T12:30:24;9.35;;;4.20;;
82352;SDS011;71954;47.430;18.920;2023-11-21T12:32:57;10.77;;;6.35;;
82352;SDS011;71954;47.430;18.920;2023-11-21T12:35:31;10.88;;;4.32;;
82352;SDS011;71954;47.430;18.920;2023-11-21T12:38:01;5.10;;;3.08;;
82352;SDS011;71954;47.430;18.920;2023-11-21T12:40:29;10.73;;;3.67;;
82352;SDS011;71954;47.430;18.920;2023-11-21T12:42:56;7.03;;;2.10;;
82352;SDS011;71954;47.430;18.920;2023-11-21T12:45:26;5.60;;;2.05;;
82352;SDS011;71954;47.430;18.920;2023-11-21T12:47:58;6.50;;;2.60;;
82352;SDS011;71954;47.430;18.920;2023-11-21T12:50:34;6.70;;;2.72;;
82352;SDS011;71954;47.430;18.920;2023-11-21T12:53:06;7.43;;;3.28;;
82352;SDS011;71954;47.430;18.920;2023-11-21T12:55:43;9.13;;;4.05;;
82352;SDS011;71954;47.430;18.920;2023-11-21T12:58:16;8.77;;;3.83;;
82352;SDS011;71954;47.430;18.920;2023-11-21T13:00:44;9.57;;;3.55;;
82352;SDS011;71954;47.430;18.920;2023-11-21T13:03:13;8.18;;;4.03;;
82352;SDS011;71954;47.430;18.920;2023-11-21T13:05:46;10.63;;;3.70;;
82352;SDS011;71954;47.430;18.920;2023-11-21T13:08:18;8.57;;;4.03;;
82352;SDS011;71954;47.430;18.920;2023-11-21T13:10:49;10.35;;;4.72;;
82352;SDS011;71954;47.430;18.920;2023-11-21T13:13:18;11.48;;;5.40;;
82352;SDS011;71954;47.430;18.920;2023-11-21T13:15:51;9.98;;;4.32;;
82352;SDS011;71954;47.430;18.920;2023-11-21T13:18:18;9.40;;;5.10;;
82352;SDS011;71954;47.430;18.920;2023-11-21T13:20:48;12.02;;;5.15;;
82352;SDS011;71954;47.430;18.920;2023-11-21T13:23:16;10.20;;;4.85;;
82352;SDS011;71954;47.430;18.920;2023-11-21T13:25:43;11.15;;;5.13;;
82352;SDS011;71954;47.430;18.920;2023-11-21T13:28:20;13.77;;;8.90;;
82352;SDS011;71954;47.430;18.920;2023-11-21T13:30:50;32.90;;;16.95;;
82352;SDS011;71954;47.430;18.920;2023-11-21T13:33:19;27.98;;;11.88;;
82352;SDS011;71954;47.430;18.920;2023-11-21T13:35:48;20.23;;;9.68;;
82352;SDS011;71954;47.430;18.920;2023-11-21T13:38:17;19.38;;;9.93;;
82352;SDS011;71954;47.430;18.920;2023-11-21T13:40:48;46.95;;;32.38;;
82352;SDS011;71954;47.430;18.920;2023-11-21T13:43:22;31.10;;;19.23;;
82352;SDS011;71954;47.430;18.920;2023-11-21T13:45:52;54.22;;;28.30;;
82352;SDS011;71954;47.430;18.920;2023-11-21T13:48:37;110.22;;;39.97;;
82352;SDS011;71954;47.430;18.920;2023-11-21T13:51:17;138.55;;;44.03;;
82352;SDS011;71954;47.430;18.920;2023-11-21T13:53:44;49.25;;;17.58;;
82352;SDS011;71954;47.430;18.920;2023-11-21T13:56:17;58.45;;;19.60;;
82352;SDS011;71954;47.430;18.920;2023-11-21T13:58:51;51.20;;;19.35;;
82352;SDS011;71954;47.430;18.920;2023-11-21T14:01:19;41.75;;;17.23;;
82352;SDS011;71954;47.430;18.920;2023-11-21T14:03:50;30.15;;;13.23;;
82352;SDS011;71954;47.430;18.920;2023-11-21T14:06:23;29.42;;;11.82;;
82352;SDS011;71954;47.430;18.920;2023-11-21T14:08:55;31.08;;;13.27;;
82352;SDS011;71954;47.430;18.920;2023-11-21T14:11:22;27.40;;;12.15;;
82352;SDS011;71954;47.430;18.920;2023-11-21T14:13:53;27.15;;;10.50;;
82352;SDS011;71954;47.430;18.920;2023-11-21T14:16:20;26.83;;;10.38;;
82352;SDS011;71954;47.430;18.920;2023-11-21T14:18:48;25.35;;;10.13;;
82352;SDS011;71954;47.430;18.920;2023-11-21T14:21:27;20.65;;;9.35;;
82352;SDS011;71954;47.430;18.920;2023-11-21T14:23:54;15.68;;;7.28;;
82352;SDS011;71954;47.430;18.920;2023-11-21T14:26:21;14.32;;;6.22;;
82352;SDS011;71954;47.430;18.920;2023-11-21T14:28:50;10.85;;;6.03;;
82352;SDS011;71954;47.430;18.920;2023-11-21T14:31:17;11.75;;;5.07;;
82352;SDS011;71954;47.430;18.920;2023-11-21T14:33:44;12.73;;;6.43;;
82352;SDS011;71954;47.430;18.920;2023-11-21T14:36:11;10.48;;;4.93;;
82352;SDS011;71954;47.430;18.920;2023-11-21T14:38:38;10.48;;;4.90;;
82352;SDS011;71954;47.430;18.920;2023-11-21T14:41:06;9.25;;;5.30;;
82352;SDS011;71954;47.430;18.920;2023-11-21T14:43:34;10.70;;;5.88;;
82352;SDS011;71954;47.430;18.920;2023-11-21T14:48:30;7.15;;;4.70;;
82352;SDS011;71954;47.430;18.920;2023-11-21T14:51:09;9.25;;;4.18;;
82352;SDS011;71954;47.430;18.920;2023-11-21T14:53:41;7.93;;;4.68;;
82352;SDS011;71954;47.430;18.920;2023-11-21T14:56:20;8.88;;;4.53;;
82352;SDS011;71954;47.430;18.920;2023-11-21T14:58:58;12.65;;;5.78;;
82352;SDS011;71954;47.430;18.920;2023-11-21T15:01:43;13.15;;;4.00;;
82352;SDS011;71954;47.430;18.920;2023-11-21T15:04:22;11.30;;;5.55;;
82352;SDS011;71954;47.430;18.920;2023-11-21T15:07:03;8.93;;;5.38;;
82352;SDS011;71954;47.430;18.920;2023-11-21T15:09:30;10.98;;;4.85;;
82352;SDS011;71954;47.430;18.920;2023-11-21T15:11:58;10.30;;;4.65;;
82352;SDS011;71954;47.430;18.920;2023-11-21T15:17:16;8.13;;;5.10;;
82352;SDS011;71954;47.430;18.920;2023-11-21T15:19:52;11.23;;;5.28;;
82352;SDS011;71954;47.430;18.920;2023-11-21T15:22:20;11.38;;;5.00;;